sensor_id;sensor_type;location;lat;lon;timestamp;P1;durP1;ratioP1;P2;durP2;ratioP2
71166;SDS011;58864;45.928;20.078;2023-04-21T00:02:20;12.33;;;4.63;;
71166;SDS011;58864;45.928;20.078;2023-04-21T00:04:45;11.30;;;4.93;;
71166;SDS011;58864;45.928;20.078;2023-04-21T00:07:10;12.53;;;4.27;;
71166;SDS011;58864;45.928;20.078;2023-04-21T00:09:34;12.55;;;3.75;;
71166;SDS011;58864;45.928;20.078;2023-04-21T00:11:59;15.73;;;4.63;;
71166;SDS011;58864;45.928;20.078;2023-04-21T00:14:24;10.52;;;3.70;;
71166;SDS011;58864;45.928;20.078;2023-04-21T00:16:48;13.27;;;3.80;;
71166;SDS011;58864;45.928;20.078;2023-04-21T00:19:15;10.73;;;4.03;;
71166;SDS011;58864;45.928;20.078;2023-04-21T00:21:40;10.50;;;4.38;;
71166;SDS011;58864;45.928;20.078;2023-04-21T00:24:05;13.43;;;4.27;;
71166;SDS011;58864;45.928;20.078;2023-04-21T00:26:29;12.60;;;3.80;;
71166;SDS011;58864;45.928;20.078;2023-04-21T00:28:54;17.30;;;3.60;;
71166;SDS011;58864;45.928;20.078;2023-04-21T00:31:18;11.40;;;3.65;;
71166;SDS011;58864;45.928;20.078;2023-04-21T00:33:43;10.13;;;3.63;;
71166;SDS011;58864;45.928;20.078;2023-04-21T00:36:07;13.60;;;4.07;;
71166;SDS011;58864;45.928;20.078;2023-04-21T00:38:32;12.30;;;3.80;;
71166;SDS011;58864;45.928;20.078;2023-04-21T00:40:56;13.07;;;3.63;;
71166;SDS011;58864;45.928;20.078;2023-04-21T00:43:20;15.37;;;3.43;;
71166;SDS011;58864;45.928;20.078;2023-04-21T00:45:45;12.77;;;3.43;;
71166;SDS011;58864;45.928;20.078;2023-04-21T00:48:12;10.55;;;3.50;;
71166;SDS011;58864;45.928;20.078;2023-04-21T00:50:37;15.53;;;3.50;;
71166;SDS011;58864;45.928;20.078;2023-04-21T00:53:01;11.90;;;3.50;;
71166;SDS011;58864;45.928;20.078;2023-04-21T00:55:26;10.23;;;3.80;;
71166;SDS011;58864;45.928;20.078;2023-04-21T00:57:50;14.57;;;3.70;;
71166;SDS011;58864;45.928;20.078;2023-04-21T01:00:15;12.05;;;3.90;;
71166;SDS011;58864;45.928;20.078;2023-04-21T01:02:40;13.27;;;4.00;;
71166;SDS011;58864;45.928;20.078;2023-04-21T01:05:05;12.43;;;3.97;;
71166;SDS011;58864;45.928;20.078;2023-04-21T01:07:32;10.63;;;3.47;;
71166;SDS011;58864;45.928;20.078;2023-04-21T01:09:56;9.50;;;3.30;;
71166;SDS011;58864;45.928;20.078;2023-04-21T01:12:20;12.93;;;3.40;;
71166;SDS011;58864;45.928;20.078;2023-04-21T01:14:45;9.83;;;3.87;;
71166;SDS011;58864;45.928;20.078;2023-04-21T01:17:09;15.00;;;4.50;;
71166;SDS011;58864;45.928;20.078;2023-04-21T01:19:35;15.27;;;4.13;;
71166;SDS011;58864;45.928;20.078;2023-04-21T01:22:02;10.95;;;3.75;;
71166;SDS011;58864;45.928;20.078;2023-04-21T01:24:37;15.23;;;4.07;;
71166;SDS011;58864;45.928;20.078;2023-04-21T01:27:02;12.90;;;3.85;;
71166;SDS011;58864;45.928;20.078;2023-04-21T01:29:30;10.40;;;4.00;;
71166;SDS011;58864;45.928;20.078;2023-04-21T01:31:56;12.57;;;3.97;;
71166;SDS011;58864;45.928;20.078;2023-04-21T01:34:20;13.43;;;4.05;;
71166;SDS011;58864;45.928;20.078;2023-04-21T01:36:44;11.20;;;4.10;;
71166;SDS011;58864;45.928;20.078;2023-04-21T01:39:09;14.47;;;4.10;;
71166;SDS011;58864;45.928;20.078;2023-04-21T01:41:33;9.73;;;3.73;;
71166;SDS011;58864;45.928;20.078;2023-04-21T01:43:58;11.82;;;4.10;;
71166;SDS011;58864;45.928;20.078;2023-04-21T01:46:24;8.60;;;3.67;;
71166;SDS011;58864;45.928;20.078;2023-04-21T01:48:48;11.83;;;4.03;;
71166;SDS011;58864;45.928;20.078;2023-04-21T01:51:12;14.82;;;4.45;;
71166;SDS011;58864;45.928;20.078;2023-04-21T01:53:37;12.03;;;3.73;;
71166;SDS011;58864;45.928;20.078;2023-04-21T01:56:01;9.87;;;4.10;;
71166;SDS011;58864;45.928;20.078;2023-04-21T01:58:26;11.77;;;3.80;;
71166;SDS011;58864;45.928;20.078;2023-04-21T02:00:50;10.55;;;4.07;;
71166;SDS011;58864;45.928;20.078;2023-04-21T02:03:15;7.87;;;3.53;;
71166;SDS011;58864;45.928;20.078;2023-04-21T02:05:39;8.53;;;3.33;;
71166;SDS011;58864;45.928;20.078;2023-04-21T02:08:04;8.87;;;3.10;;
71166;SDS011;58864;45.928;20.078;2023-04-21T02:10:29;10.70;;;4.05;;
71166;SDS011;58864;45.928;20.078;2023-04-21T02:12:53;14.97;;;4.17;;
71166;SDS011;58864;45.928;20.078;2023-04-21T02:15:18;8.18;;;3.53;;
71166;SDS011;58864;45.928;20.078;2023-04-21T02:17:42;11.13;;;3.80;;
71166;SDS011;58864;45.928;20.078;2023-04-21T02:20:07;11.65;;;4.15;;
71166;SDS011;58864;45.928;20.078;2023-04-21T02:22:32;9.00;;;3.58;;
71166;SDS011;58864;45.928;20.078;2023-04-21T02:24:57;10.77;;;3.37;;
71166;SDS011;58864;45.928;20.078;2023-04-21T02:27:21;7.47;;;3.50;;
71166;SDS011;58864;45.928;20.078;2023-04-21T02:29:45;13.67;;;4.00;;
71166;SDS011;58864;45.928;20.078;2023-04-21T02:32:10;12.07;;;4.77;;
71166;SDS011;58864;45.928;20.078;2023-04-21T02:34:34;9.70;;;3.70;;
71166;SDS011;58864;45.928;20.078;2023-04-21T02:36:59;8.70;;;4.00;;
71166;SDS011;58864;45.928;20.078;2023-04-21T02:39:23;13.25;;;4.35;;
71166;SDS011;58864;45.928;20.078;2023-04-21T02:41:48;11.43;;;4.20;;
71166;SDS011;58864;45.928;20.078;2023-04-21T02:44:13;11.77;;;4.40;;
71166;SDS011;58864;45.928;20.078;2023-04-21T02:46:40;12.05;;;4.75;;
71166;SDS011;58864;45.928;20.078;2023-04-21T02:49:04;10.50;;;4.60;;
71166;SDS011;58864;45.928;20.078;2023-04-21T02:51:29;9.57;;;4.68;;
71166;SDS011;58864;45.928;20.078;2023-04-21T02:53:55;11.60;;;4.35;;
71166;SDS011;58864;45.928;20.078;2023-04-21T02:56:19;10.03;;;4.20;;
71166;SDS011;58864;45.928;20.078;2023-04-21T02:58:44;10.43;;;4.57;;
71166;SDS011;58864;45.928;20.078;2023-04-21T03:01:08;10.40;;;4.28;;
71166;SDS011;58864;45.928;20.078;2023-04-21T03:03:33;9.40;;;4.20;;
71166;SDS011;58864;45.928;20.078;2023-04-21T03:05:59;10.82;;;4.13;;
71166;SDS011;58864;45.928;20.078;2023-04-21T03:08:24;9.70;;;4.25;;
71166;SDS011;58864;45.928;20.078;2023-04-21T03:10:49;11.87;;;4.47;;
71166;SDS011;58864;45.928;20.078;2023-04-21T03:13:13;17.63;;;4.90;;
71166;SDS011;58864;45.928;20.078;2023-04-21T03:15:38;11.33;;;4.67;;
71166;SDS011;58864;45.928;20.078;2023-04-21T03:18:02;11.47;;;4.53;;
71166;SDS011;58864;45.928;20.078;2023-04-21T03:20:27;11.30;;;4.47;;
71166;SDS011;58864;45.928;20.078;2023-04-21T03:22:54;11.77;;;4.70;;
71166;SDS011;58864;45.928;20.078;2023-04-21T03:25:19;12.15;;;4.20;;
71166;SDS011;58864;45.928;20.078;2023-04-21T03:27:43;10.87;;;4.40;;
71166;SDS011;58864;45.928;20.078;2023-04-21T03:30:08;12.77;;;4.80;;
71166;SDS011;58864;45.928;20.078;2023-04-21T03:32:32;16.88;;;4.53;;
71166;SDS011;58864;45.928;20.078;2023-04-21T03:34:57;14.60;;;4.60;;
71166;SDS011;58864;45.928;20.078;2023-04-21T03:37:21;17.93;;;4.10;;
71166;SDS011;58864;45.928;20.078;2023-04-21T03:39:46;12.60;;;4.83;;
71166;SDS011;58864;45.928;20.078;2023-04-21T03:42:10;12.63;;;4.30;;
71166;SDS011;58864;45.928;20.078;2023-04-21T03:44:35;11.97;;;3.80;;
71166;SDS011;58864;45.928;20.078;2023-04-21T03:46:59;14.03;;;3.70;;
71166;SDS011;58864;45.928;20.078;2023-04-21T03:49:26;16.00;;;3.90;;
71166;SDS011;58864;45.928;20.078;2023-04-21T03:51:50;12.03;;;3.60;;
71166;SDS011;58864;45.928;20.078;2023-04-21T03:54:15;8.68;;;3.60;;
71166;SDS011;58864;45.928;20.078;2023-04-21T03:56:39;12.40;;;3.63;;
71166;SDS011;58864;45.928;20.078;2023-04-21T03:59:03;8.57;;;3.60;;
71166;SDS011;58864;45.928;20.078;2023-04-21T04:01:29;16.45;;;3.58;;
71166;SDS011;58864;45.928;20.078;2023-04-21T04:03:54;11.77;;;3.85;;
71166;SDS011;58864;45.928;20.078;2023-04-21T04:06:18;12.00;;;3.10;;
71166;SDS011;58864;45.928;20.078;2023-04-21T04:08:43;11.67;;;4.37;;
71166;SDS011;58864;45.928;20.078;2023-04-21T04:11:07;10.55;;;3.28;;
71166;SDS011;58864;45.928;20.078;2023-04-21T04:13:31;14.80;;;5.53;;
71166;SDS011;58864;45.928;20.078;2023-04-21T04:15:56;14.13;;;5.17;;
71166;SDS011;58864;45.928;20.078;2023-04-21T04:18:21;15.15;;;5.20;;
71166;SDS011;58864;45.928;20.078;2023-04-21T04:20:46;15.83;;;4.27;;
71166;SDS011;58864;45.928;20.078;2023-04-21T04:23:10;16.83;;;4.03;;
71166;SDS011;58864;45.928;20.078;2023-04-21T04:25:34;15.18;;;3.53;;
71166;SDS011;58864;45.928;20.078;2023-04-21T04:28:00;13.07;;;3.97;;
71166;SDS011;58864;45.928;20.078;2023-04-21T04:30:24;11.38;;;3.90;;
71166;SDS011;58864;45.928;20.078;2023-04-21T04:32:51;9.73;;;3.47;;
71166;SDS011;58864;45.928;20.078;2023-04-21T04:35:16;11.30;;;4.38;;
71166;SDS011;58864;45.928;20.078;2023-04-21T04:37:40;12.97;;;3.83;;
71166;SDS011;58864;45.928;20.078;2023-04-21T04:40:05;13.30;;;3.47;;
71166;SDS011;58864;45.928;20.078;2023-04-21T04:42:33;14.35;;;3.55;;
71166;SDS011;58864;45.928;20.078;2023-04-21T04:44:58;13.95;;;3.78;;
71166;SDS011;58864;45.928;20.078;2023-04-21T04:47:24;10.75;;;3.55;;
71166;SDS011;58864;45.928;20.078;2023-04-21T04:49:49;11.70;;;3.37;;
71166;SDS011;58864;45.928;20.078;2023-04-21T04:52:13;11.67;;;3.63;;
71166;SDS011;58864;45.928;20.078;2023-04-21T04:54:37;12.73;;;3.47;;
71166;SDS011;58864;45.928;20.078;2023-04-21T04:57:02;13.17;;;3.80;;
71166;SDS011;58864;45.928;20.078;2023-04-21T04:59:27;13.70;;;3.40;;
71166;SDS011;58864;45.928;20.078;2023-04-21T05:01:51;11.20;;;3.27;;
71166;SDS011;58864;45.928;20.078;2023-04-21T05:04:16;13.10;;;3.72;;
71166;SDS011;58864;45.928;20.078;2023-04-21T05:06:40;10.87;;;3.60;;
71166;SDS011;58864;45.928;20.078;2023-04-21T05:09:05;14.83;;;4.20;;
71166;SDS011;58864;45.928;20.078;2023-04-21T05:11:29;11.98;;;3.70;;
71166;SDS011;58864;45.928;20.078;2023-04-21T05:13:54;11.33;;;3.60;;
71166;SDS011;58864;45.928;20.078;2023-04-21T05:16:18;19.87;;;4.13;;
71166;SDS011;58864;45.928;20.078;2023-04-21T05:18:43;14.88;;;3.90;;
71166;SDS011;58864;45.928;20.078;2023-04-21T05:21:07;14.90;;;3.83;;
71166;SDS011;58864;45.928;20.078;2023-04-21T05:23:31;9.43;;;4.10;;
71166;SDS011;58864;45.928;20.078;2023-04-21T05:25:56;14.77;;;3.60;;
71166;SDS011;58864;45.928;20.078;2023-04-21T05:28:20;15.85;;;3.97;;
71166;SDS011;58864;45.928;20.078;2023-04-21T05:30:46;14.43;;;3.63;;
71166;SDS011;58864;45.928;20.078;2023-04-21T05:33:10;16.23;;;4.65;;
71166;SDS011;58864;45.928;20.078;2023-04-21T05:35:35;11.27;;;3.30;;
71166;SDS011;58864;45.928;20.078;2023-04-21T05:37:59;11.67;;;3.43;;
71166;SDS011;58864;45.928;20.078;2023-04-21T05:40:24;13.03;;;3.50;;
71166;SDS011;58864;45.928;20.078;2023-04-21T05:42:48;10.30;;;3.40;;
71166;SDS011;58864;45.928;20.078;2023-04-21T05:45:12;20.63;;;4.97;;
71166;SDS011;58864;45.928;20.078;2023-04-21T05:47:37;16.63;;;3.73;;
71166;SDS011;58864;45.928;20.078;2023-04-21T05:50:02;14.18;;;4.00;;
71166;SDS011;58864;45.928;20.078;2023-04-21T05:52:26;14.40;;;4.13;;
71166;SDS011;58864;45.928;20.078;2023-04-21T05:54:51;15.15;;;4.30;;
71166;SDS011;58864;45.928;20.078;2023-04-21T05:57:16;15.23;;;4.13;;
71166;SDS011;58864;45.928;20.078;2023-04-21T05:59:40;11.63;;;3.60;;
71166;SDS011;58864;45.928;20.078;2023-04-21T06:02:05;8.77;;;3.33;;
71166;SDS011;58864;45.928;20.078;2023-04-21T06:04:29;14.68;;;3.50;;
71166;SDS011;58864;45.928;20.078;2023-04-21T06:06:54;11.87;;;4.10;;
71166;SDS011;58864;45.928;20.078;2023-04-21T06:09:19;9.83;;;3.70;;
71166;SDS011;58864;45.928;20.078;2023-04-21T06:11:43;12.13;;;4.00;;
71166;SDS011;58864;45.928;20.078;2023-04-21T06:14:08;14.93;;;4.30;;
71166;SDS011;58864;45.928;20.078;2023-04-21T06:16:32;11.77;;;3.77;;
71166;SDS011;58864;45.928;20.078;2023-04-21T06:18:57;14.18;;;4.13;;
71166;SDS011;58864;45.928;20.078;2023-04-21T06:21:22;10.00;;;3.80;;
71166;SDS011;58864;45.928;20.078;2023-04-21T06:23:46;12.68;;;3.70;;
71166;SDS011;58864;45.928;20.078;2023-04-21T06:26:10;16.03;;;4.00;;
71166;SDS011;58864;45.928;20.078;2023-04-21T06:28:35;15.40;;;4.10;;
71166;SDS011;58864;45.928;20.078;2023-04-21T06:31:02;13.77;;;4.05;;
71166;SDS011;58864;45.928;20.078;2023-04-21T06:33:27;14.30;;;3.70;;
71166;SDS011;58864;45.928;20.078;2023-04-21T06:35:52;18.10;;;4.43;;
71166;SDS011;58864;45.928;20.078;2023-04-21T06:38:17;14.50;;;4.47;;
71166;SDS011;58864;45.928;20.078;2023-04-21T06:40:42;17.80;;;4.67;;
71166;SDS011;58864;45.928;20.078;2023-04-21T06:43:06;13.10;;;4.50;;
71166;SDS011;58864;45.928;20.078;2023-04-21T06:45:30;12.43;;;4.10;;
71166;SDS011;58864;45.928;20.078;2023-04-21T06:47:55;14.73;;;4.13;;
71166;SDS011;58864;45.928;20.078;2023-04-21T06:50:19;16.23;;;4.10;;
71166;SDS011;58864;45.928;20.078;2023-04-21T06:52:44;16.80;;;3.70;;
71166;SDS011;58864;45.928;20.078;2023-04-21T06:55:08;11.82;;;4.10;;
71166;SDS011;58864;45.928;20.078;2023-04-21T06:57:33;14.13;;;4.33;;
71166;SDS011;58864;45.928;20.078;2023-04-21T06:59:57;13.40;;;4.40;;
71166;SDS011;58864;45.928;20.078;2023-04-21T07:02:22;14.70;;;4.13;;
71166;SDS011;58864;45.928;20.078;2023-04-21T07:04:46;15.33;;;4.13;;
71166;SDS011;58864;45.928;20.078;2023-04-21T07:07:11;16.27;;;4.13;;
71166;SDS011;58864;45.928;20.078;2023-04-21T07:09:37;11.73;;;3.67;;
71166;SDS011;58864;45.928;20.078;2023-04-21T07:12:01;12.90;;;4.23;;
71166;SDS011;58864;45.928;20.078;2023-04-21T07:14:26;13.70;;;4.90;;
71166;SDS011;58864;45.928;20.078;2023-04-21T07:16:50;16.67;;;4.20;;
71166;SDS011;58864;45.928;20.078;2023-04-21T07:19:15;14.83;;;3.97;;
71166;SDS011;58864;45.928;20.078;2023-04-21T07:21:39;11.50;;;3.93;;
71166;SDS011;58864;45.928;20.078;2023-04-21T07:24:03;11.33;;;4.00;;
71166;SDS011;58864;45.928;20.078;2023-04-21T07:26:28;11.70;;;3.93;;
71166;SDS011;58864;45.928;20.078;2023-04-21T07:28:53;13.00;;;3.70;;
71166;SDS011;58864;45.928;20.078;2023-04-21T07:31:21;13.25;;;3.75;;
71166;SDS011;58864;45.928;20.078;2023-04-21T07:33:45;12.97;;;3.83;;
71166;SDS011;58864;45.928;20.078;2023-04-21T07:36:10;11.63;;;3.88;;
71166;SDS011;58864;45.928;20.078;2023-04-21T07:38:34;15.10;;;3.97;;
71166;SDS011;58864;45.928;20.078;2023-04-21T07:41:01;12.30;;;3.90;;
71166;SDS011;58864;45.928;20.078;2023-04-21T07:43:25;12.27;;;3.77;;
71166;SDS011;58864;45.928;20.078;2023-04-21T07:45:50;12.67;;;4.00;;
71166;SDS011;58864;45.928;20.078;2023-04-21T07:48:15;14.90;;;3.60;;
71166;SDS011;58864;45.928;20.078;2023-04-21T07:50:39;16.80;;;4.00;;
71166;SDS011;58864;45.928;20.078;2023-04-21T07:53:05;15.30;;;3.90;;
71166;SDS011;58864;45.928;20.078;2023-04-21T07:55:30;15.48;;;4.03;;
71166;SDS011;58864;45.928;20.078;2023-04-21T07:57:54;20.27;;;4.13;;
71166;SDS011;58864;45.928;20.078;2023-04-21T08:00:19;9.88;;;3.83;;
71166;SDS011;58864;45.928;20.078;2023-04-21T08:02:44;13.30;;;3.67;;
71166;SDS011;58864;45.928;20.078;2023-04-21T08:05:08;16.08;;;4.40;;
71166;SDS011;58864;45.928;20.078;2023-04-21T08:07:33;11.43;;;3.57;;
71166;SDS011;58864;45.928;20.078;2023-04-21T08:09:57;13.63;;;3.97;;
71166;SDS011;58864;45.928;20.078;2023-04-21T08:12:23;12.10;;;3.70;;
71166;SDS011;58864;45.928;20.078;2023-04-21T08:14:47;13.50;;;3.93;;
71166;SDS011;58864;45.928;20.078;2023-04-21T08:17:12;7.72;;;3.42;;
71166;SDS011;58864;45.928;20.078;2023-04-21T08:19:36;10.37;;;3.70;;
71166;SDS011;58864;45.928;20.078;2023-04-21T08:22:00;12.30;;;4.40;;
71166;SDS011;58864;45.928;20.078;2023-04-21T08:24:25;19.47;;;3.77;;
71166;SDS011;58864;45.928;20.078;2023-04-21T08:26:49;11.77;;;3.70;;
71166;SDS011;58864;45.928;20.078;2023-04-21T08:29:14;14.13;;;3.90;;
71166;SDS011;58864;45.928;20.078;2023-04-21T08:31:39;12.70;;;3.75;;
71166;SDS011;58864;45.928;20.078;2023-04-21T08:34:03;12.60;;;3.60;;
71166;SDS011;58864;45.928;20.078;2023-04-21T08:36:28;12.83;;;3.93;;
71166;SDS011;58864;45.928;20.078;2023-04-21T08:38:52;16.48;;;3.72;;
71166;SDS011;58864;45.928;20.078;2023-04-21T08:41:17;16.73;;;3.57;;
71166;SDS011;58864;45.928;20.078;2023-04-21T08:43:42;14.43;;;3.75;;
71166;SDS011;58864;45.928;20.078;2023-04-21T08:46:07;12.27;;;4.00;;
71166;SDS011;58864;45.928;20.078;2023-04-21T08:48:35;13.38;;;3.70;;
71166;SDS011;58864;45.928;20.078;2023-04-21T08:51:01;10.63;;;3.80;;
71166;SDS011;58864;45.928;20.078;2023-04-21T08:53:25;13.57;;;4.87;;
71166;SDS011;58864;45.928;20.078;2023-04-21T08:55:54;14.55;;;3.75;;
71166;SDS011;58864;45.928;20.078;2023-04-21T08:58:19;14.47;;;3.63;;
71166;SDS011;58864;45.928;20.078;2023-04-21T09:00:45;12.15;;;3.67;;
71166;SDS011;58864;45.928;20.078;2023-04-21T09:03:10;12.30;;;3.30;;
71166;SDS011;58864;45.928;20.078;2023-04-21T09:05:34;18.57;;;3.90;;
71166;SDS011;58864;45.928;20.078;2023-04-21T09:10:41;13.20;;;3.70;;
71166;SDS011;58864;45.928;20.078;2023-04-21T09:13:09;14.95;;;4.13;;
71166;SDS011;58864;45.928;20.078;2023-04-21T09:15:40;12.52;;;3.15;;
71166;SDS011;58864;45.928;20.078;2023-04-21T09:18:17;12.93;;;3.60;;
71166;SDS011;58864;45.928;20.078;2023-04-21T09:20:43;11.43;;;3.30;;
71166;SDS011;58864;45.928;20.078;2023-04-21T09:23:08;10.63;;;3.55;;
71166;SDS011;58864;45.928;20.078;2023-04-21T09:25:33;12.55;;;3.65;;
71166;SDS011;58864;45.928;20.078;2023-04-21T09:28:01;15.83;;;3.20;;
71166;SDS011;58864;45.928;20.078;2023-04-21T09:30:25;15.27;;;3.60;;
71166;SDS011;58864;45.928;20.078;2023-04-21T09:32:50;10.57;;;3.40;;
71166;SDS011;58864;45.928;20.078;2023-04-21T09:35:14;10.53;;;3.97;;
71166;SDS011;58864;45.928;20.078;2023-04-21T09:37:39;11.50;;;3.00;;
71166;SDS011;58864;45.928;20.078;2023-04-21T09:40:06;11.63;;;3.58;;
71166;SDS011;58864;45.928;20.078;2023-04-21T09:42:32;12.25;;;3.53;;
71166;SDS011;58864;45.928;20.078;2023-04-21T09:44:56;15.03;;;3.23;;
71166;SDS011;58864;45.928;20.078;2023-04-21T09:47:21;16.70;;;3.25;;
71166;SDS011;58864;45.928;20.078;2023-04-21T09:49:46;13.87;;;3.33;;
71166;SDS011;58864;45.928;20.078;2023-04-21T09:52:14;9.88;;;3.30;;
71166;SDS011;58864;45.928;20.078;2023-04-21T09:54:44;12.80;;;3.13;;
71166;SDS011;58864;45.928;20.078;2023-04-21T09:57:17;10.27;;;2.97;;
71166;SDS011;58864;45.928;20.078;2023-04-21T09:59:45;10.38;;;3.00;;
71166;SDS011;58864;45.928;20.078;2023-04-21T10:02:10;18.70;;;3.37;;
71166;SDS011;58864;45.928;20.078;2023-04-21T10:04:36;9.23;;;3.20;;
71166;SDS011;58864;45.928;20.078;2023-04-21T10:07:01;13.25;;;3.78;;
71166;SDS011;58864;45.928;20.078;2023-04-21T10:09:34;14.00;;;3.78;;
71166;SDS011;58864;45.928;20.078;2023-04-21T10:12:03;13.68;;;3.38;;
71166;SDS011;58864;45.928;20.078;2023-04-21T10:14:28;16.67;;;3.67;;
71166;SDS011;58864;45.928;20.078;2023-04-21T10:17:05;9.93;;;3.70;;
71166;SDS011;58864;45.928;20.078;2023-04-21T10:19:31;10.85;;;3.60;;
71166;SDS011;58864;45.928;20.078;2023-04-21T10:21:59;11.33;;;3.30;;
71166;SDS011;58864;45.928;20.078;2023-04-21T10:24:27;12.50;;;3.83;;
71166;SDS011;58864;45.928;20.078;2023-04-21T10:26:52;11.83;;;3.27;;
71166;SDS011;58864;45.928;20.078;2023-04-21T10:29:16;14.77;;;3.28;;
71166;SDS011;58864;45.928;20.078;2023-04-21T10:31:52;11.87;;;3.37;;
71166;SDS011;58864;45.928;20.078;2023-04-21T10:34:18;10.93;;;3.25;;
71166;SDS011;58864;45.928;20.078;2023-04-21T10:39:08;11.73;;;3.27;;
71166;SDS011;58864;45.928;20.078;2023-04-21T10:41:35;14.35;;;3.15;;
71166;SDS011;58864;45.928;20.078;2023-04-21T10:44:00;8.60;;;3.30;;
71166;SDS011;58864;45.928;20.078;2023-04-21T10:46:37;11.73;;;3.22;;
71166;SDS011;58864;45.928;20.078;2023-04-21T10:49:22;11.43;;;2.75;;
71166;SDS011;58864;45.928;20.078;2023-04-21T10:54:22;12.60;;;2.97;;
71166;SDS011;58864;45.928;20.078;2023-04-21T10:56:51;10.03;;;2.50;;
71166;SDS011;58864;45.928;20.078;2023-04-21T10:59:17;11.48;;;2.80;;
71166;SDS011;58864;45.928;20.078;2023-04-21T11:01:42;11.15;;;2.85;;
71166;SDS011;58864;45.928;20.078;2023-04-21T11:04:12;12.30;;;3.03;;
71166;SDS011;58864;45.928;20.078;2023-04-21T11:06:37;9.27;;;2.42;;
71166;SDS011;58864;45.928;20.078;2023-04-21T11:09:01;12.60;;;2.70;;
71166;SDS011;58864;45.928;20.078;2023-04-21T11:11:26;10.57;;;2.67;;
71166;SDS011;58864;45.928;20.078;2023-04-21T11:13:51;11.10;;;2.43;;
71166;SDS011;58864;45.928;20.078;2023-04-21T11:16:16;11.27;;;2.53;;
71166;SDS011;58864;45.928;20.078;2023-04-21T11:18:42;10.13;;;2.50;;
71166;SDS011;58864;45.928;20.078;2023-04-21T11:21:08;8.18;;;2.50;;
71166;SDS011;58864;45.928;20.078;2023-04-21T11:23:48;11.68;;;2.58;;
71166;SDS011;58864;45.928;20.078;2023-04-21T11:26:14;8.52;;;2.33;;
71166;SDS011;58864;45.928;20.078;2023-04-21T11:28:39;9.93;;;2.57;;
71166;SDS011;58864;45.928;20.078;2023-04-21T11:31:04;7.43;;;2.30;;
71166;SDS011;58864;45.928;20.078;2023-04-21T11:33:29;10.77;;;3.07;;
71166;SDS011;58864;45.928;20.078;2023-04-21T11:35:53;10.05;;;2.60;;
71166;SDS011;58864;45.928;20.078;2023-04-21T11:38:23;6.30;;;2.30;;
71166;SDS011;58864;45.928;20.078;2023-04-21T11:40:48;10.75;;;2.60;;
71166;SDS011;58864;45.928;20.078;2023-04-21T11:43:12;9.70;;;2.40;;
71166;SDS011;58864;45.928;20.078;2023-04-21T11:45:38;7.47;;;2.30;;
71166;SDS011;58864;45.928;20.078;2023-04-21T11:48:16;12.45;;;2.50;;
71166;SDS011;58864;45.928;20.078;2023-04-21T11:50:46;11.65;;;2.60;;
71166;SDS011;58864;45.928;20.078;2023-04-21T11:53:13;9.90;;;2.63;;
71166;SDS011;58864;45.928;20.078;2023-04-21T11:55:41;8.07;;;2.27;;
71166;SDS011;58864;45.928;20.078;2023-04-21T11:58:06;7.97;;;2.10;;
71166;SDS011;58864;45.928;20.078;2023-04-21T12:00:30;10.98;;;2.17;;
71166;SDS011;58864;45.928;20.078;2023-04-21T12:02:55;7.73;;;1.83;;
71166;SDS011;58864;45.928;20.078;2023-04-21T12:05:21;5.95;;;1.65;;
71166;SDS011;58864;45.928;20.078;2023-04-21T12:07:47;8.57;;;1.90;;
71166;SDS011;58864;45.928;20.078;2023-04-21T12:10:12;10.97;;;1.90;;
71166;SDS011;58864;45.928;20.078;2023-04-21T12:12:39;12.93;;;2.00;;
71166;SDS011;58864;45.928;20.078;2023-04-21T12:15:04;9.27;;;2.00;;
71166;SDS011;58864;45.928;20.078;2023-04-21T12:17:43;7.47;;;1.90;;
71166;SDS011;58864;45.928;20.078;2023-04-21T12:20:08;16.02;;;2.05;;
71166;SDS011;58864;45.928;20.078;2023-04-21T12:22:33;8.00;;;1.87;;
71166;SDS011;58864;45.928;20.078;2023-04-21T12:24:57;5.53;;;1.53;;
71166;SDS011;58864;45.928;20.078;2023-04-21T12:27:21;7.95;;;1.77;;
71166;SDS011;58864;45.928;20.078;2023-04-21T12:29:46;8.20;;;1.80;;
71166;SDS011;58864;45.928;20.078;2023-04-21T12:32:10;7.60;;;2.07;;
71166;SDS011;58864;45.928;20.078;2023-04-21T12:34:35;9.73;;;1.73;;
71166;SDS011;58864;45.928;20.078;2023-04-21T12:37:00;8.37;;;1.80;;
71166;SDS011;58864;45.928;20.078;2023-04-21T12:39:24;8.60;;;1.80;;
71166;SDS011;58864;45.928;20.078;2023-04-21T12:41:49;12.60;;;2.00;;
71166;SDS011;58864;45.928;20.078;2023-04-21T12:44:14;8.80;;;1.92;;
71166;SDS011;58864;45.928;20.078;2023-04-21T12:46:39;9.90;;;1.80;;
71166;SDS011;58864;45.928;20.078;2023-04-21T12:49:04;7.75;;;2.10;;
71166;SDS011;58864;45.928;20.078;2023-04-21T12:51:30;8.60;;;2.40;;
71166;SDS011;58864;45.928;20.078;2023-04-21T12:53:55;8.37;;;2.00;;
71166;SDS011;58864;45.928;20.078;2023-04-21T12:56:19;7.73;;;1.73;;
71166;SDS011;58864;45.928;20.078;2023-04-21T12:58:44;6.85;;;2.03;;
71166;SDS011;58864;45.928;20.078;2023-04-21T13:01:08;9.30;;;1.80;;
71166;SDS011;58864;45.928;20.078;2023-04-21T13:03:33;7.77;;;1.90;;
71166;SDS011;58864;45.928;20.078;2023-04-21T13:05:57;11.52;;;1.90;;
71166;SDS011;58864;45.928;20.078;2023-04-21T13:08:21;9.93;;;2.27;;
71166;SDS011;58864;45.928;20.078;2023-04-21T13:10:46;7.53;;;2.00;;
71166;SDS011;58864;45.928;20.078;2023-04-21T13:13:10;8.27;;;2.23;;
71166;SDS011;58864;45.928;20.078;2023-04-21T13:15:35;9.02;;;2.03;;
71166;SDS011;58864;45.928;20.078;2023-04-21T13:17:59;8.80;;;2.20;;
71166;SDS011;58864;45.928;20.078;2023-04-21T13:20:24;13.53;;;3.17;;
71166;SDS011;58864;45.928;20.078;2023-04-21T13:22:49;8.82;;;2.38;;
71166;SDS011;58864;45.928;20.078;2023-04-21T13:25:16;8.50;;;2.08;;
71166;SDS011;58864;45.928;20.078;2023-04-21T13:27:41;8.13;;;2.00;;
71166;SDS011;58864;45.928;20.078;2023-04-21T13:30:06;8.10;;;1.90;;
71166;SDS011;58864;45.928;20.078;2023-04-21T13:32:31;7.10;;;2.30;;
71166;SDS011;58864;45.928;20.078;2023-04-21T13:34:55;9.17;;;2.00;;
71166;SDS011;58864;45.928;20.078;2023-04-21T13:37:21;9.68;;;2.20;;
71166;SDS011;58864;45.928;20.078;2023-04-21T13:39:45;7.60;;;2.20;;
71166;SDS011;58864;45.928;20.078;2023-04-21T13:42:10;10.70;;;2.40;;
71166;SDS011;58864;45.928;20.078;2023-04-21T13:44:34;14.23;;;2.67;;
71166;SDS011;58864;45.928;20.078;2023-04-21T13:46:59;8.53;;;2.67;;
71166;SDS011;58864;45.928;20.078;2023-04-21T13:49:24;8.43;;;2.20;;
71166;SDS011;58864;45.928;20.078;2023-04-21T13:51:48;7.63;;;2.08;;
71166;SDS011;58864;45.928;20.078;2023-04-21T13:54:13;12.07;;;2.17;;
71166;SDS011;58864;45.928;20.078;2023-04-21T13:56:37;9.70;;;2.00;;
71166;SDS011;58864;45.928;20.078;2023-04-21T13:59:02;8.83;;;2.17;;
71166;SDS011;58864;45.928;20.078;2023-04-21T14:01:26;8.33;;;2.13;;
71166;SDS011;58864;45.928;20.078;2023-04-21T14:03:51;6.60;;;2.37;;
71166;SDS011;58864;45.928;20.078;2023-04-21T14:06:16;9.07;;;2.30;;
71166;SDS011;58864;45.928;20.078;2023-04-21T14:08:41;7.13;;;2.40;;
71166;SDS011;58864;45.928;20.078;2023-04-21T14:11:05;9.03;;;2.77;;
71166;SDS011;58864;45.928;20.078;2023-04-21T14:13:30;9.05;;;2.33;;
71166;SDS011;58864;45.928;20.078;2023-04-21T14:15:54;7.20;;;2.50;;
71166;SDS011;58864;45.928;20.078;2023-04-21T14:18:19;8.37;;;2.30;;
71166;SDS011;58864;45.928;20.078;2023-04-21T14:20:44;5.97;;;2.15;;
71166;SDS011;58864;45.928;20.078;2023-04-21T14:23:08;10.07;;;2.30;;